createdAt,value
2019-05-07T00:00:16.524Z,2.60
2019-05-07T00:02:44.961Z,2.43
2019-05-07T00:05:13.381Z,2.50
2019-05-07T00:07:42.487Z,2.42
2019-05-07T00:10:12.817Z,2.10
2019-05-07T00:12:43.113Z,2.33
2019-05-07T00:15:12.587Z,2.27
2019-05-07T00:17:42.881Z,2.20
2019-05-07T00:20:12.815Z,2.20
2019-05-07T00:22:41.940Z,2.40
2019-05-07T00:25:12.376Z,2.30
2019-05-07T00:27:42.703Z,2.65
2019-05-07T00:30:12.624Z,2.55
2019-05-07T00:32:42.429Z,2.20
2019-05-07T00:35:13.095Z,2.80
2019-05-07T00:38:02.541Z,2.17
2019-05-07T00:40:38.168Z,2.42
2019-05-07T00:43:08.175Z,2.42
2019-05-07T00:45:42.135Z,2.73
2019-05-07T00:48:12.606Z,2.33
2019-05-07T00:50:42.112Z,2.92
2019-05-07T00:53:12.949Z,2.02
2019-05-07T00:55:42.295Z,2.52
2019-05-07T00:58:13.080Z,2.93
2019-05-07T01:00:42.092Z,3.30
2019-05-07T01:03:12.767Z,2.70
2019-05-07T01:05:43.031Z,2.87
2019-05-07T01:08:13.003Z,2.70
2019-05-07T01:10:41.984Z,2.67
2019-05-07T01:13:12.675Z,3.20
2019-05-07T01:15:42.805Z,3.35
2019-05-07T01:18:12.355Z,3.55
2019-05-07T01:20:42.344Z,2.92
2019-05-07T01:23:13.207Z,3.30
2019-05-07T01:25:43.081Z,3.43
2019-05-07T01:28:13.163Z,3.77
2019-05-07T01:30:43.193Z,3.57
2019-05-07T01:33:15.625Z,4.13
2019-05-07T01:35:45.638Z,3.70
2019-05-07T01:38:15.628Z,4.10
2019-05-07T01:40:44.049Z,3.73
2019-05-07T01:43:12.480Z,3.52
2019-05-07T01:48:32.924Z,4.58
2019-05-07T01:51:03.368Z,4.30
2019-05-07T01:53:32.307Z,4.05
2019-05-07T01:56:03.031Z,3.72
2019-05-07T01:58:33.091Z,4.53
2019-05-07T02:01:02.832Z,4.40
2019-05-07T02:03:42.221Z,4.22
2019-05-07T02:06:15.065Z,4.70
2019-05-07T02:08:45.062Z,4.45
2019-05-07T02:11:21.844Z,5.30
2019-05-07T02:13:52.827Z,3.98
2019-05-07T02:16:21.850Z,4.12
2019-05-07T02:18:52.656Z,3.43
2019-05-07T02:21:22.053Z,3.65
2019-05-07T02:23:52.308Z,4.17
2019-05-07T02:26:22.524Z,4.53
2019-05-07T02:28:51.894Z,4.08
2019-05-07T02:31:22.964Z,5.17
2019-05-07T02:33:53.778Z,5.22
2019-05-07T02:36:23.591Z,5.45
2019-05-07T02:38:54.941Z,4.67
2019-05-07T02:41:24.947Z,5.25
2019-05-07T02:43:53.832Z,4.07
2019-05-07T02:46:30.958Z,4.37
2019-05-07T02:49:03.139Z,4.08
2019-05-07T02:51:39.073Z,4.12
2019-05-07T02:54:14.506Z,4.97
2019-05-07T02:56:43.422Z,3.83
2019-05-07T02:59:13.746Z,3.87
2019-05-07T03:01:43.280Z,3.72
2019-05-07T03:04:12.882Z,3.92
2019-05-07T03:06:44.323Z,4.10
2019-05-07T03:09:14.432Z,4.10
2019-05-07T03:11:43.524Z,4.53
2019-05-07T03:14:14.058Z,3.30
2019-05-07T03:16:45.447Z,2.60
2019-05-07T03:19:13.349Z,3.70
2019-05-07T03:21:54.875Z,3.83
2019-05-07T03:24:25.366Z,3.35
2019-05-07T03:26:53.802Z,3.37
2019-05-07T03:29:24.203Z,3.95
2019-05-07T03:31:56.460Z,3.47
2019-05-07T03:34:28.905Z,3.83
2019-05-07T03:36:58.895Z,3.47
2019-05-07T03:39:27.342Z,3.70
2019-05-07T03:41:55.766Z,3.58
2019-05-07T03:44:37.262Z,3.83
2019-05-07T03:47:19.281Z,3.90
2019-05-07T03:49:47.820Z,3.90
2019-05-07T03:52:16.250Z,3.95
2019-05-07T03:54:44.678Z,3.52
2019-05-07T03:57:15.821Z,3.75
2019-05-07T03:59:43.487Z,3.67
2019-05-07T04:02:14.324Z,4.40
2019-05-07T04:04:43.315Z,3.80
2019-05-07T04:07:13.834Z,3.98
2019-05-07T04:09:43.705Z,3.90
2019-05-07T04:12:13.106Z,3.42
2019-05-07T04:14:43.242Z,3.85
2019-05-07T04:17:17.330Z,5.03
2019-05-07T04:19:44.056Z,4.17
2019-05-07T04:22:13.243Z,3.90
2019-05-07T04:24:43.583Z,3.33
2019-05-07T04:27:25.537Z,3.80
2019-05-07T04:29:53.969Z,4.03
2019-05-07T04:32:23.974Z,3.62
2019-05-07T04:35:03.586Z,3.63
2019-05-07T04:37:42.772Z,3.70
2019-05-07T04:42:46.983Z,4.10
2019-05-07T04:45:15.434Z,3.62
2019-05-07T04:47:47.509Z,3.40
2019-05-07T04:50:33.087Z,3.08
2019-05-07T04:52:45.688Z,2.90
2019-05-07T04:55:14.156Z,3.10
2019-05-07T04:57:43.882Z,3.12
2019-05-07T05:00:13.571Z,3.10
2019-05-07T05:02:52.739Z,3.65
2019-05-07T05:05:23.273Z,2.90
2019-05-07T05:07:53.161Z,3.10
2019-05-07T05:10:23.184Z,3.77
2019-05-07T05:12:53.403Z,3.25
2019-05-07T05:15:22.186Z,2.95
2019-05-07T05:17:53.832Z,3.50
2019-05-07T05:20:22.708Z,3.30
2019-05-07T05:23:08.832Z,3.25
2019-05-07T05:25:38.855Z,2.75
2019-05-07T05:28:08.241Z,3.53
2019-05-07T05:30:44.144Z,4.03
2019-05-07T05:33:12.808Z,3.17
2019-05-07T05:35:43.075Z,3.60
2019-05-07T05:38:12.732Z,3.52
2019-05-07T05:40:42.666Z,3.10
2019-05-07T05:43:19.060Z,3.70
2019-05-07T05:45:53.035Z,4.03
2019-05-07T05:48:22.425Z,3.27
2019-05-07T05:50:56.003Z,3.80
2019-05-07T05:53:43.399Z,3.35
2019-05-07T05:56:14.012Z,4.35
2019-05-07T05:58:44.019Z,3.05
2019-05-07T06:01:33.243Z,3.50
2019-05-07T06:04:09.314Z,3.90
2019-05-07T06:06:42.403Z,3.10
2019-05-07T06:09:28.869Z,3.20
2019-05-07T06:12:15.512Z,3.33
2019-05-07T06:14:45.548Z,2.98
2019-05-07T06:17:32.076Z,2.83
2019-05-07T06:23:09.576Z,3.20
2019-05-07T06:25:38.535Z,2.95
2019-05-07T06:28:06.965Z,2.95
2019-05-07T06:30:35.408Z,3.00
2019-05-07T06:33:03.833Z,2.90
2019-05-07T06:35:32.553Z,3.37
2019-05-07T06:38:02.878Z,2.65
2019-05-07T06:40:51.798Z,3.40
2019-05-07T06:46:12.556Z,2.87
2019-05-07T06:48:43.691Z,3.27
2019-05-07T06:51:12.605Z,2.50
2019-05-07T06:53:42.271Z,2.90
2019-05-07T06:56:12.215Z,2.60
2019-05-07T06:58:48.393Z,2.42
2019-05-07T07:01:46.296Z,2.00
2019-05-07T07:04:16.887Z,1.42
2019-05-07T07:06:49.838Z,1.93
2019-05-07T07:09:24.442Z,1.80
2019-05-07T07:11:54.452Z,1.62
2019-05-07T07:14:24.830Z,1.98
2019-05-07T07:16:53.045Z,2.00
2019-05-07T07:19:35.878Z,1.57
2019-05-07T07:22:03.336Z,2.20
2019-05-07T07:24:32.925Z,2.27
2019-05-07T07:27:02.799Z,2.12
2019-05-07T07:29:35.385Z,2.27
2019-05-07T07:32:05.378Z,1.92
2019-05-07T07:34:35.384Z,2.50
2019-05-07T07:37:10.922Z,1.80
2019-05-07T07:39:38.528Z,2.20
2019-05-07T07:42:08.520Z,1.98
2019-05-07T07:44:36.969Z,1.70
2019-05-07T07:47:05.758Z,2.00
2019-05-07T07:49:35.993Z,2.05
2019-05-07T07:52:07.379Z,2.35
2019-05-07T07:54:35.825Z,2.22
2019-05-07T07:57:08.768Z,2.45
2019-05-07T07:59:42.146Z,2.35
2019-05-07T08:02:24.755Z,2.70
2019-05-07T08:04:53.195Z,2.92
2019-05-07T08:07:22.846Z,2.98
2019-05-07T08:09:52.054Z,2.70
2019-05-07T08:12:22.204Z,3.05
2019-05-07T08:14:51.913Z,2.52
2019-05-07T08:17:22.361Z,2.37
2019-05-07T08:19:51.921Z,2.60
2019-05-07T08:22:22.589Z,2.80
2019-05-07T08:24:51.930Z,2.10
2019-05-07T08:27:22.209Z,2.37
2019-05-07T08:29:52.465Z,2.20
2019-05-07T08:32:28.057Z,2.13
2019-05-07T08:35:14.624Z,1.85
2019-05-07T08:37:45.573Z,2.45
2019-05-07T08:42:45.417Z,1.90
2019-05-07T08:45:21.638Z,1.77
2019-05-07T08:47:49.877Z,1.77
2019-05-07T08:50:18.496Z,2.00
2019-05-07T08:52:46.915Z,1.92
2019-05-07T08:55:15.358Z,1.37
2019-05-07T08:57:45.886Z,1.35
2019-05-07T09:00:15.445Z,1.32
2019-05-07T09:02:43.887Z,1.83
2019-05-07T09:05:12.305Z,1.52
2019-05-07T09:07:42.409Z,1.37
2019-05-07T09:10:12.604Z,1.42
2019-05-07T09:12:42.714Z,1.17
2019-05-07T09:15:12.431Z,1.50
2019-05-07T09:17:42.275Z,1.65
2019-05-07T09:20:12.587Z,1.50
2019-05-07T09:22:42.718Z,1.50
2019-05-07T09:25:12.912Z,1.40
2019-05-07T09:27:42.717Z,1.83
2019-05-07T09:30:12.895Z,1.63
2019-05-07T09:32:48.842Z,1.65
2019-05-07T09:35:32.074Z,1.90
2019-05-07T09:38:03.025Z,1.27
2019-05-07T09:40:32.029Z,1.60
2019-05-07T09:43:02.722Z,1.70
2019-05-07T09:45:32.846Z,1.40
2019-05-07T09:48:02.816Z,1.55
2019-05-07T09:50:32.492Z,1.45
2019-05-07T09:53:02.335Z,1.30
2019-05-07T09:55:32.601Z,1.40
2019-05-07T09:58:01.997Z,2.40
2019-05-07T10:00:34.695Z,1.52
2019-05-07T10:03:03.369Z,1.67
2019-05-07T10:05:33.122Z,1.10
2019-05-07T10:08:01.943Z,1.50
2019-05-07T10:10:32.710Z,1.80
2019-05-07T10:13:08.145Z,1.10
2019-05-07T10:15:36.574Z,1.30
2019-05-07T10:18:14.158Z,1.10
2019-05-07T10:20:42.598Z,1.65
2019-05-07T10:23:12.611Z,1.30
2019-05-07T10:25:41.054Z,1.40
2019-05-07T10:28:09.480Z,1.52
2019-05-07T10:30:38.923Z,1.27
2019-05-07T10:33:07.357Z,1.60
2019-05-07T10:35:35.798Z,1.17
2019-05-07T10:38:04.217Z,1.30
2019-05-07T10:40:32.857Z,1.25
2019-05-07T10:43:01.276Z,1.60
2019-05-07T10:45:47.248Z,1.20
2019-05-07T10:48:23.481Z,1.52
2019-05-07T10:50:53.485Z,1.07
2019-05-07T10:53:22.958Z,1.60
2019-05-07T10:55:51.572Z,1.25
2019-05-07T10:58:20.033Z,1.32
2019-05-07T11:00:48.555Z,1.30
2019-05-07T11:03:16.996Z,1.37
2019-05-07T11:05:45.411Z,1.00
2019-05-07T11:08:13.852Z,1.20
2019-05-07T11:10:42.489Z,1.20
2019-05-07T11:13:12.835Z,1.57
2019-05-07T11:15:42.986Z,0.90
2019-05-07T11:20:53.250Z,1.10
2019-05-07T11:23:22.115Z,1.92
2019-05-07T11:25:52.512Z,1.30
2019-05-07T11:28:22.656Z,1.00
2019-05-07T11:30:50.748Z,0.90
2019-05-07T11:33:19.182Z,0.80
2019-05-07T11:35:47.594Z,1.70
2019-05-07T11:38:22.260Z,1.17
2019-05-07T11:40:46.094Z,1.07
2019-05-07T11:43:18.600Z,1.00
2019-05-07T11:45:48.593Z,0.80
2019-05-07T11:48:18.224Z,1.17
2019-05-07T11:51:01.457Z,1.20
2019-05-07T11:53:34.117Z,1.32
2019-05-07T11:56:02.719Z,1.10
2019-05-07T11:58:32.555Z,2.40
2019-05-07T12:01:03.941Z,1.30
2019-05-07T12:03:32.653Z,1.40
2019-05-07T12:06:02.121Z,1.52
2019-05-07T12:08:39.336Z,1.25
2019-05-07T12:11:02.348Z,1.40
2019-05-07T12:13:32.305Z,0.98
2019-05-07T12:16:02.991Z,1.40
2019-05-07T12:18:31.977Z,1.12
2019-05-07T12:21:03.796Z,1.47
2019-05-07T12:23:33.013Z,1.22
2019-05-07T12:26:02.286Z,1.50
2019-05-07T12:28:32.881Z,1.00
2019-05-07T12:31:05.539Z,0.90
2019-05-07T12:33:53.271Z,1.10
2019-05-07T12:36:22.773Z,0.80
2019-05-07T12:38:53.258Z,1.05
2019-05-07T12:41:33.847Z,0.90
2019-05-07T12:44:03.127Z,0.90
2019-05-07T12:46:33.347Z,1.25
2019-05-07T12:49:03.062Z,1.27
2019-05-07T12:51:37.232Z,1.50
2019-05-07T12:54:05.108Z,1.07
2019-05-07T12:56:33.520Z,1.27
2019-05-07T12:59:02.239Z,1.27
2019-05-07T13:01:37.762Z,1.35
2019-05-07T13:04:07.774Z,1.40
2019-05-07T13:06:37.777Z,1.40
2019-05-07T13:09:06.219Z,1.72
2019-05-07T13:11:34.640Z,1.25
2019-05-07T13:14:03.282Z,1.40
2019-05-07T13:16:34.694Z,1.40
2019-05-07T13:19:03.146Z,1.37
2019-05-07T13:21:31.949Z,1.65
2019-05-07T13:24:02.711Z,0.98
2019-05-07T13:26:32.222Z,1.67
2019-05-07T13:29:02.527Z,1.70
2019-05-07T13:31:32.704Z,1.42
2019-05-07T13:34:04.025Z,1.60
2019-05-07T13:36:33.244Z,1.42
2019-05-07T13:39:15.339Z,1.77
2019-05-07T13:41:46.332Z,1.40
2019-05-07T13:44:17.043Z,1.82
2019-05-07T13:46:45.853Z,1.60
2019-05-07T13:49:14.304Z,1.40
2019-05-07T13:51:42.747Z,1.42
2019-05-07T13:54:12.891Z,1.85
2019-05-07T13:56:41.948Z,2.05
2019-05-07T13:59:12.996Z,1.45
2019-05-07T14:01:42.277Z,1.65
2019-05-07T14:04:12.745Z,2.10
2019-05-07T14:06:43.039Z,2.00
2019-05-07T14:09:23.887Z,1.42
2019-05-07T14:11:55.388Z,1.20
2019-05-07T14:14:28.649Z,1.27
2019-05-07T14:16:57.272Z,1.37
2019-05-07T14:19:25.751Z,1.20
2019-05-07T14:21:54.208Z,1.55
2019-05-07T14:24:23.125Z,1.15
2019-05-07T14:26:52.756Z,1.98
2019-05-07T14:29:24.345Z,1.57
2019-05-07T14:31:53.254Z,1.50
2019-05-07T14:37:13.552Z,1.87
2019-05-07T14:39:42.616Z,1.25
2019-05-07T14:42:12.908Z,1.40
2019-05-07T14:44:47.997Z,1.87
2019-05-07T14:47:17.537Z,1.85
2019-05-07T14:49:46.014Z,1.30
2019-05-07T14:52:14.465Z,1.42
2019-05-07T14:54:42.913Z,1.52
2019-05-07T14:57:11.353Z,1.40
2019-05-07T14:59:39.788Z,1.32
2019-05-07T15:02:27.568Z,1.32
2019-05-07T15:04:56.052Z,1.25
2019-05-07T15:07:24.479Z,1.17
2019-05-07T15:09:52.916Z,1.40
2019-05-07T15:12:23.105Z,1.30
2019-05-07T15:14:52.734Z,1.20
2019-05-07T15:17:26.372Z,1.30
2019-05-07T15:19:54.817Z,1.32
2019-05-07T15:22:48.627Z,1.30
2019-05-07T15:25:06.982Z,1.30
2019-05-07T15:27:35.408Z,1.45
2019-05-07T15:30:04.749Z,1.40
2019-05-07T15:32:33.188Z,1.47
2019-05-07T15:35:02.169Z,1.70
2019-05-07T15:37:32.183Z,1.10
2019-05-07T15:40:02.416Z,1.10
2019-05-07T15:42:32.734Z,1.37
2019-05-07T15:45:02.351Z,1.42
2019-05-07T15:47:32.573Z,1.65
2019-05-07T15:50:00.988Z,1.77
2019-05-07T15:52:57.697Z,1.30
2019-05-07T15:55:17.548Z,1.70
2019-05-07T15:57:45.989Z,1.45
2019-05-07T16:00:18.741Z,2.08
2019-05-07T16:02:48.752Z,1.90
2019-05-07T16:05:17.181Z,1.70
2019-05-07T16:07:48.238Z,1.22
2019-05-07T16:10:16.660Z,1.12
2019-05-07T16:12:45.099Z,1.50
2019-05-07T16:15:13.899Z,1.30
2019-05-07T16:17:46.706Z,1.30
2019-05-07T16:20:15.596Z,1.27
2019-05-07T16:22:45.613Z,1.57
2019-05-07T16:25:15.220Z,1.30
2019-05-07T16:27:43.732Z,1.35
2019-05-07T16:30:14.194Z,1.50
2019-05-07T16:32:42.446Z,1.20
2019-05-07T16:35:12.447Z,1.20
2019-05-07T16:37:42.876Z,1.20
2019-05-07T16:40:12.718Z,1.40
2019-05-07T16:42:42.899Z,1.32
2019-05-07T16:45:13.220Z,1.25
2019-05-07T16:47:41.954Z,1.47
2019-05-07T16:50:12.768Z,1.70
2019-05-07T16:52:41.985Z,1.72
2019-05-07T16:55:12.324Z,1.30
2019-05-07T16:57:59.113Z,0.98
2019-05-07T17:00:42.289Z,1.32
2019-05-07T17:03:12.640Z,1.27
2019-05-07T17:05:42.905Z,2.08
2019-05-07T17:08:12.704Z,2.02
2019-05-07T17:10:42.444Z,1.27
2019-05-07T17:13:12.514Z,1.70
2019-05-07T17:15:57.759Z,1.20
2019-05-07T17:18:26.683Z,1.30
2019-05-07T17:20:55.806Z,1.52
2019-05-07T17:23:24.754Z,1.40
2019-05-07T17:25:53.200Z,1.12
2019-05-07T17:28:22.873Z,1.30
2019-05-07T17:30:52.480Z,1.47
2019-05-07T17:33:23.004Z,1.37
2019-05-07T17:35:51.761Z,1.47
2019-05-07T17:38:22.863Z,1.25
2019-05-07T17:40:52.139Z,1.10
2019-05-07T17:43:21.943Z,1.57
2019-05-07T17:45:52.321Z,1.40
2019-05-07T17:48:23.043Z,1.20
2019-05-07T17:50:55.092Z,1.43
2019-05-07T17:53:23.544Z,0.88
2019-05-07T17:55:52.959Z,1.60
2019-05-07T17:58:21.601Z,1.80
2019-05-07T18:00:52.914Z,1.70
2019-05-07T18:03:35.382Z,1.20
2019-05-07T18:06:03.794Z,1.40
2019-05-07T18:08:32.693Z,1.07
2019-05-07T18:11:02.240Z,1.25
2019-05-07T18:13:32.299Z,1.70
2019-05-07T18:16:03.054Z,1.17
2019-05-07T18:18:32.718Z,1.57
2019-05-07T18:21:02.315Z,1.30
2019-05-07T18:23:32.130Z,1.02
2019-05-07T18:26:00.912Z,1.45
2019-05-07T18:28:29.662Z,1.15
2019-05-07T18:31:02.071Z,1.32
2019-05-07T18:33:36.830Z,1.40
2019-05-07T18:36:02.966Z,1.20
2019-05-07T18:38:32.956Z,2.02
2019-05-07T18:41:02.703Z,1.12
2019-05-07T18:43:33.148Z,1.40
2019-05-07T18:46:02.295Z,1.25
2019-05-07T18:48:31.185Z,1.80
2019-05-07T18:50:59.616Z,2.02
2019-05-07T18:53:28.039Z,2.08
2019-05-07T18:55:56.751Z,2.10
2019-05-07T18:58:25.203Z,1.90
2019-05-07T19:00:55.200Z,1.92
2019-05-07T19:03:25.373Z,2.33
2019-05-07T19:05:54.009Z,1.90
2019-05-07T19:08:22.959Z,1.72
2019-05-07T19:10:52.207Z,1.67
2019-05-07T19:13:22.152Z,2.22
2019-05-07T19:15:52.742Z,1.52
2019-05-07T19:18:22.864Z,1.65
2019-05-07T19:20:52.926Z,2.33
2019-05-07T19:23:27.121Z,1.63
2019-05-07T19:25:58.326Z,1.40
2019-05-07T19:28:28.443Z,1.42
2019-05-07T19:30:56.856Z,1.57
2019-05-07T19:33:27.107Z,1.92
2019-05-07T19:35:55.458Z,2.08
2019-05-07T19:38:23.901Z,1.60
2019-05-07T19:40:52.900Z,2.10
2019-05-07T19:43:21.724Z,2.00
2019-05-07T19:45:52.234Z,1.60
2019-05-07T19:48:20.257Z,1.75
2019-05-07T19:50:48.733Z,2.22
2019-05-07T19:53:20.251Z,2.08
2019-05-07T19:55:57.964Z,1.62
2019-05-07T19:58:26.608Z,1.50
2019-05-07T20:00:58.063Z,2.15
2019-05-07T20:03:26.496Z,1.95
2019-05-07T20:05:54.979Z,1.52
2019-05-07T20:08:23.390Z,1.60
2019-05-07T20:11:14.739Z,2.62
2019-05-07T20:13:43.823Z,2.60
2019-05-07T20:16:17.170Z,2.22
2019-05-07T20:18:45.609Z,2.10
2019-05-07T20:21:14.056Z,2.12
2019-05-07T20:23:43.160Z,1.50
2019-05-07T20:26:12.599Z,1.92
2019-05-07T20:29:02.878Z,2.80
2019-05-07T20:31:32.945Z,2.35
2019-05-07T20:34:02.493Z,1.70
2019-05-07T20:36:32.960Z,2.85
2019-05-07T20:39:02.651Z,1.98
2019-05-07T20:41:32.555Z,1.80
2019-05-07T20:44:11.413Z,1.52
2019-05-07T20:46:43.270Z,2.08
2019-05-07T20:49:22.482Z,2.02
2019-05-07T20:51:57.885Z,2.30
2019-05-07T20:54:37.914Z,1.90
2019-05-07T20:57:13.229Z,1.60
2019-05-07T20:59:44.499Z,2.17
2019-05-07T21:02:12.920Z,2.02
2019-05-07T21:04:42.443Z,2.25
2019-05-07T21:07:11.899Z,1.90
2019-05-07T21:09:42.266Z,2.00
2019-05-07T21:12:12.622Z,2.30
2019-05-07T21:14:41.786Z,2.08
2019-05-07T21:17:12.007Z,2.07
2019-05-07T21:19:42.816Z,2.07
2019-05-07T21:22:12.862Z,1.60
2019-05-07T21:24:42.189Z,2.17
2019-05-07T21:27:18.402Z,1.77
2019-05-07T21:29:46.902Z,1.60
2019-05-07T21:32:15.317Z,2.15
2019-05-07T21:34:43.759Z,2.33
2019-05-07T21:37:12.566Z,2.72
2019-05-07T21:39:42.434Z,2.70
2019-05-07T21:42:13.972Z,2.13
2019-05-07T21:44:43.042Z,2.67
2019-05-07T21:47:12.654Z,2.40
2019-05-07T21:52:32.915Z,2.55
2019-05-07T21:55:06.005Z,2.47
2019-05-07T21:57:35.986Z,2.33
2019-05-07T22:00:12.490Z,2.10
2019-05-07T22:02:41.888Z,1.80
2019-05-07T22:05:11.826Z,1.80
2019-05-07T22:07:41.570Z,1.87
2019-05-07T22:10:09.992Z,2.22
2019-05-07T22:12:40.115Z,2.00
2019-05-07T22:15:10.077Z,1.95
2019-05-07T22:17:38.519Z,2.23
2019-05-07T22:20:06.941Z,2.75
2019-05-07T22:22:35.376Z,2.50
2019-05-07T22:25:05.399Z,2.58
2019-05-07T22:27:33.941Z,2.65
2019-05-07T22:30:03.370Z,2.00
2019-05-07T22:32:39.000Z,2.58
2019-05-07T22:35:09.461Z,2.30
2019-05-07T22:37:40.455Z,2.17
2019-05-07T22:40:09.225Z,2.45
2019-05-07T22:42:38.013Z,2.60
2019-05-07T22:45:08.799Z,2.15
2019-05-07T22:47:37.259Z,2.42
2019-05-07T22:50:05.694Z,2.55
2019-05-07T22:52:34.101Z,2.20
2019-05-07T22:55:02.544Z,2.60
2019-05-07T22:57:32.722Z,2.15
2019-05-07T23:00:02.072Z,2.42
2019-05-07T23:02:32.149Z,2.15
2019-05-07T23:05:02.905Z,2.42
2019-05-07T23:07:32.895Z,2.95
2019-05-07T23:10:07.365Z,2.33
2019-05-07T23:12:35.825Z,3.55
2019-05-07T23:15:05.970Z,2.85
2019-05-07T23:17:34.396Z,2.80
2019-05-07T23:20:02.935Z,3.05
2019-05-07T23:22:32.417Z,2.90
2019-05-07T23:25:00.978Z,2.50
2019-05-07T23:27:29.408Z,2.95
2019-05-07T23:29:57.847Z,2.83
2019-05-07T23:32:26.253Z,2.62
2019-05-07T23:34:54.691Z,2.80
2019-05-07T23:37:23.134Z,4.70
2019-05-07T23:39:56.133Z,4.08
2019-05-07T23:42:26.145Z,4.20
2019-05-07T23:44:54.563Z,4.70
2019-05-07T23:47:23.000Z,4.53
2019-05-07T23:49:54.177Z,5.55
2019-05-07T23:52:22.690Z,4.90
2019-05-07T23:54:52.170Z,4.70
2019-05-07T23:57:23.145Z,5.53
2019-05-07T23:59:52.831Z,3.20
